Dulan, China
Current Conditions -  °F | °C
As of 3:00 PM on Saturday 25 Oct 2014 (Local Time) from ZLLL Reporting Station
Clear Clear  
Wind Chill: 64°   Ceiling: Unl
Heat Index: 64°   Visibility: 6mi
Dew Point: 36°   Wind: 7mph
Humidity: 34%   Direction: 130°SE
Pressure: 30.09"   Gusts: NA
Location:  36.3°N, 98.1°E
Report Text: ZLLL 250700Z 13003MPS 060V180 CAVOK 18/02 Q1019 NOSIG
Loading
Personal Weather Stations






























Interactive Weather Map
Tropical Storm Tracking
New forecast layout! Learn more

10-Day Weather Forecast

Advertisements
Track Severe Weather on mobile